createdAt,value
2019-05-16T00:01:13.322Z,14.33
2019-05-16T00:03:43.826Z,14.00
2019-05-16T00:06:14.271Z,14.67
2019-05-16T00:08:44.766Z,14.77
2019-05-16T00:11:15.313Z,15.37
2019-05-16T00:13:45.938Z,16.87
2019-05-16T00:16:18.643Z,15.13
2019-05-16T00:18:49.028Z,15.47
2019-05-16T00:21:19.626Z,16.47
2019-05-16T00:23:50.131Z,15.90
2019-05-16T00:26:20.788Z,17.20
2019-05-16T00:28:51.383Z,17.07
2019-05-16T00:31:21.938Z,17.07
2019-05-16T00:33:52.526Z,16.97
2019-05-16T00:36:22.936Z,16.00
2019-05-16T00:38:53.456Z,15.90
2019-05-16T00:41:23.977Z,16.73
2019-05-16T00:43:54.646Z,17.17
2019-05-16T00:46:25.157Z,17.90
2019-05-16T00:48:55.580Z,18.73
2019-05-16T00:51:26.158Z,17.33
2019-05-16T00:53:58.696Z,17.67
2019-05-16T00:56:31.373Z,18.30
2019-05-16T00:59:02.427Z,18.77
2019-05-16T01:01:32.993Z,18.27
2019-05-16T01:04:03.701Z,17.67
2019-05-16T01:06:34.288Z,18.57
2019-05-16T01:09:08.652Z,18.97
2019-05-16T01:11:39.481Z,18.60
2019-05-16T01:14:10.049Z,18.53
2019-05-16T01:16:40.638Z,17.73
2019-05-16T01:19:11.161Z,18.23
2019-05-16T01:21:41.809Z,18.10
2019-05-16T01:24:12.464Z,18.80
2019-05-16T01:26:43.203Z,18.20
2019-05-16T01:29:13.762Z,18.53
2019-05-16T01:31:44.387Z,17.77
2019-05-16T01:34:14.936Z,17.40
2019-05-16T01:36:45.414Z,17.00
2019-05-16T01:39:18.158Z,18.17
2019-05-16T01:41:48.233Z,18.60
2019-05-16T01:44:18.831Z,18.47
2019-05-16T01:46:49.516Z,18.13
2019-05-16T01:49:19.944Z,17.40
2019-05-16T01:51:50.456Z,17.83
2019-05-16T01:54:21.028Z,18.67
2019-05-16T01:56:51.671Z,18.87
2019-05-16T01:59:22.208Z,18.30
2019-05-16T02:01:52.837Z,19.30
2019-05-16T02:04:23.437Z,18.90
2019-05-16T02:06:55.067Z,18.40
2019-05-16T02:09:27.918Z,18.50
2019-05-16T02:11:58.880Z,18.03
2019-05-16T02:14:30.026Z,17.53
2019-05-16T02:17:00.548Z,18.40
2019-05-16T02:19:31.128Z,20.73
2019-05-16T02:22:01.699Z,17.67
2019-05-16T02:24:32.158Z,18.10
2019-05-16T02:27:02.719Z,17.90
2019-05-16T02:29:33.421Z,17.47
2019-05-16T02:32:03.955Z,17.63
2019-05-16T02:34:34.532Z,16.63
2019-05-16T02:37:24.059Z,15.07
2019-05-16T02:39:37.321Z,16.70
2019-05-16T02:42:11.518Z,17.80
2019-05-16T02:44:41.168Z,17.40
2019-05-16T02:47:12.152Z,17.20
2019-05-16T02:49:42.681Z,19.10
2019-05-16T02:52:13.124Z,20.27
2019-05-16T02:54:43.831Z,21.03
2019-05-16T02:57:14.438Z,20.97
2019-05-16T02:59:44.895Z,20.57
2019-05-16T03:02:15.679Z,18.87
2019-05-16T03:04:46.530Z,18.13
2019-05-16T03:07:36.782Z,19.37
2019-05-16T03:09:51.392Z,17.80
2019-05-16T03:12:23.758Z,17.33
2019-05-16T03:14:54.787Z,16.60
2019-05-16T03:17:27.048Z,17.03
2019-05-16T03:20:01.417Z,16.90
2019-05-16T03:22:32.551Z,17.20
2019-05-16T03:25:03.218Z,17.00
2019-05-16T03:27:33.758Z,17.97
2019-05-16T03:30:04.381Z,17.10
2019-05-16T03:32:35.055Z,16.93
2019-05-16T03:35:07.514Z,17.47
2019-05-16T03:37:54.027Z,17.17
2019-05-16T03:40:12.238Z,17.53
2019-05-16T03:42:42.739Z,17.37
2019-05-16T03:45:13.422Z,16.97
2019-05-16T03:47:44.289Z,17.30
2019-05-16T03:50:15.054Z,17.87
2019-05-16T03:52:45.568Z,17.80
2019-05-16T03:55:16.353Z,17.87
2019-05-16T03:57:46.923Z,16.53
2019-05-16T04:00:20.984Z,17.43
2019-05-16T04:02:52.252Z,17.73
2019-05-16T04:05:22.208Z,16.67
2019-05-16T04:08:09.994Z,15.40
2019-05-16T04:10:24.987Z,15.47
2019-05-16T04:12:55.615Z,14.17
2019-05-16T04:15:26.284Z,15.03
2019-05-16T04:17:56.818Z,14.03
2019-05-16T04:20:30.311Z,12.50
2019-05-16T04:23:01.123Z,12.90
2019-05-16T04:25:31.870Z,12.83
2019-05-16T04:28:02.571Z,16.03
2019-05-16T04:30:33.172Z,28.57
2019-05-16T04:33:03.673Z,14.70
2019-05-16T04:35:34.385Z,12.07
2019-05-16T04:38:04.988Z,12.30
2019-05-16T04:40:38.225Z,11.87
2019-05-16T04:43:07.903Z,11.97
2019-05-16T04:45:41.413Z,11.83
2019-05-16T04:48:11.434Z,12.10
2019-05-16T04:50:42.220Z,11.10
2019-05-16T04:53:12.844Z,12.27
2019-05-16T04:55:43.638Z,12.10
2019-05-16T04:58:14.286Z,12.40
2019-05-16T05:00:45.167Z,12.13
2019-05-16T05:03:16.128Z,13.07
2019-05-16T05:05:46.945Z,11.10
2019-05-16T05:08:17.662Z,11.47
2019-05-16T05:10:50.999Z,10.47
2019-05-16T05:13:22.145Z,11.93
2019-05-16T05:15:53.672Z,9.97
2019-05-16T05:18:24.343Z,10.90
2019-05-16T05:20:55.003Z,8.87
2019-05-16T05:23:25.548Z,9.10
2019-05-16T05:25:56.016Z,8.87
2019-05-16T05:28:26.747Z,8.10
2019-05-16T05:30:59.537Z,7.40
2019-05-16T05:33:30.505Z,7.30
2019-05-16T05:36:12.378Z,8.60
2019-05-16T05:38:55.567Z,8.83
2019-05-16T05:41:23.486Z,13.63
2019-05-16T05:43:59.775Z,11.67
2019-05-16T05:46:31.664Z,8.23
2019-05-16T05:49:02.439Z,6.83
2019-05-16T05:51:35.516Z,6.27
2019-05-16T05:54:07.071Z,5.97
2019-05-16T05:56:41.827Z,6.10
2019-05-16T05:59:15.296Z,6.60
2019-05-16T06:01:51.368Z,7.17
2019-05-16T06:04:24.992Z,6.23
2019-05-16T06:07:01.220Z,6.00
2019-05-16T06:09:34.430Z,8.10
2019-05-16T06:12:10.028Z,7.40
2019-05-16T06:14:41.853Z,4.60
2019-05-16T06:17:14.601Z,5.53
2019-05-16T06:19:45.234Z,5.73
2019-05-16T06:22:17.721Z,5.23
2019-05-16T06:25:00.909Z,5.03
2019-05-16T06:27:31.754Z,6.90
2019-05-16T06:30:07.886Z,4.23
2019-05-16T06:32:41.341Z,6.50
2019-05-16T06:35:15.242Z,13.37
2019-05-16T06:37:51.091Z,5.60
2019-05-16T06:40:29.433Z,7.00
2019-05-16T06:43:00.534Z,4.97
2019-05-16T06:45:35.117Z,5.23
2019-05-16T06:48:10.056Z,5.07
2019-05-16T06:50:42.026Z,6.70
2019-05-16T06:53:13.877Z,7.33
2019-05-16T06:55:49.744Z,11.30
2019-05-16T06:58:24.529Z,13.87
2019-05-16T07:00:55.307Z,14.73
2019-05-16T07:03:26.271Z,9.10
2019-05-16T07:05:56.770Z,12.87
2019-05-16T07:08:27.329Z,16.03
2019-05-16T07:11:02.314Z,12.67
2019-05-16T07:13:32.972Z,12.53
2019-05-16T07:16:03.499Z,14.63
2019-05-16T07:18:34.006Z,11.53
2019-05-16T07:21:04.765Z,11.40
2019-05-16T07:23:35.382Z,13.90
2019-05-16T07:26:06.038Z,12.70
2019-05-16T07:28:36.596Z,13.50
2019-05-16T07:31:17.746Z,11.70
2019-05-16T07:33:40.673Z,11.03
2019-05-16T07:36:11.496Z,14.10
2019-05-16T07:38:42.062Z,15.30
2019-05-16T07:41:14.040Z,14.80
2019-05-16T07:43:44.848Z,14.43
2019-05-16T07:46:15.685Z,14.73
2019-05-16T07:48:46.191Z,14.27
2019-05-16T07:51:16.761Z,13.23
2019-05-16T07:53:47.323Z,12.67
2019-05-16T07:56:20.451Z,12.87
2019-05-16T07:58:50.874Z,12.83
2019-05-16T08:01:21.616Z,13.07
2019-05-16T08:03:54.089Z,13.80
2019-05-16T08:06:24.871Z,14.43
2019-05-16T08:08:55.448Z,14.33
2019-05-16T08:11:26.076Z,15.30
2019-05-16T08:13:56.540Z,14.47
2019-05-16T08:16:27.108Z,13.67
2019-05-16T08:18:57.729Z,14.00
2019-05-16T08:21:30.703Z,14.33
2019-05-16T08:26:40.040Z,15.60
2019-05-16T08:29:13.061Z,12.53
2019-05-16T08:31:42.990Z,12.43
2019-05-16T08:34:14.001Z,11.93
2019-05-16T08:36:44.493Z,9.70
2019-05-16T08:39:15.098Z,10.67
2019-05-16T08:41:45.686Z,10.57
2019-05-16T08:44:16.247Z,10.17
2019-05-16T08:46:53.178Z,9.80
2019-05-16T08:49:22.113Z,9.80
2019-05-16T08:51:53.377Z,10.73
2019-05-16T08:54:23.790Z,7.60
2019-05-16T08:56:54.341Z,8.40
2019-05-16T08:59:24.978Z,6.60
2019-05-16T09:01:58.144Z,4.97
2019-05-16T09:04:33.346Z,4.60
2019-05-16T09:07:01.998Z,4.40
2019-05-16T09:09:42.644Z,4.30
2019-05-16T09:10:35.668Z,15.90
2019-05-16T09:12:07.717Z,4.27
2019-05-16T09:14:39.068Z,4.50
2019-05-16T09:17:09.337Z,5.17
2019-05-16T09:19:39.879Z,5.40
2019-05-16T09:22:10.453Z,6.07
2019-05-16T09:24:41.011Z,5.27
2019-05-16T09:27:13.061Z,4.27
2019-05-16T09:29:44.167Z,4.37
2019-05-16T09:32:17.943Z,4.60
2019-05-16T09:34:48.020Z,4.97
2019-05-16T09:37:18.853Z,5.03
2019-05-16T09:39:51.978Z,4.83
2019-05-16T09:42:23.996Z,5.10
2019-05-16T09:44:54.660Z,3.20
2019-05-16T09:47:28.296Z,3.57
2019-05-16T09:49:58.634Z,4.17
2019-05-16T09:52:29.160Z,4.33
2019-05-16T09:55:00.109Z,4.13
2019-05-16T09:57:30.659Z,4.10
2019-05-16T10:00:01.218Z,4.40
2019-05-16T10:02:31.848Z,4.43
2019-05-16T10:05:02.745Z,4.00
2019-05-16T10:07:33.520Z,4.00
2019-05-16T10:10:06.400Z,4.70
2019-05-16T10:12:37.088Z,4.00
2019-05-16T10:15:08.827Z,3.87
2019-05-16T10:17:39.316Z,3.90
2019-05-16T10:20:11.155Z,3.73
2019-05-16T10:22:41.767Z,4.47
2019-05-16T10:25:12.533Z,4.90
2019-05-16T10:27:43.158Z,4.27
2019-05-16T10:30:13.994Z,4.57
2019-05-16T10:32:44.709Z,3.90
2019-05-16T10:35:15.607Z,4.27
2019-05-16T10:37:47.053Z,4.30
2019-05-16T10:40:18.656Z,4.57
2019-05-16T10:42:49.290Z,4.63
2019-05-16T10:45:19.868Z,5.37
2019-05-16T10:47:50.692Z,5.23
2019-05-16T10:50:21.398Z,4.57
2019-05-16T10:53:13.356Z,5.20
2019-05-16T10:55:24.595Z,5.30
2019-05-16T10:57:56.753Z,4.20
2019-05-16T11:00:57.626Z,4.57
2019-05-16T11:02:59.905Z,4.50
2019-05-16T11:05:36.017Z,5.30
2019-05-16T11:08:02.943Z,4.80
2019-05-16T11:10:33.757Z,4.30
2019-05-16T11:13:04.357Z,3.47
2019-05-16T11:15:37.298Z,3.70
2019-05-16T11:18:07.392Z,3.00
2019-05-16T11:20:38.081Z,3.60
2019-05-16T11:23:08.625Z,4.60
2019-05-16T11:25:39.299Z,3.77
2019-05-16T11:28:10.214Z,5.03
2019-05-16T11:30:41.186Z,4.50
2019-05-16T11:33:12.247Z,4.57
2019-05-16T11:35:42.783Z,4.30
2019-05-16T11:38:13.491Z,6.60
2019-05-16T11:40:44.070Z,5.30
2019-05-16T11:43:19.155Z,5.07
2019-05-16T11:45:47.847Z,4.27
2019-05-16T11:48:18.411Z,4.70
2019-05-16T11:50:49.071Z,4.60
2019-05-16T11:53:19.580Z,5.23
2019-05-16T11:55:56.138Z,4.73
2019-05-16T11:58:22.666Z,3.70
2019-05-16T12:00:53.299Z,3.50
2019-05-16T12:03:23.838Z,4.17
2019-05-16T12:05:54.451Z,3.60
2019-05-16T12:08:26.452Z,4.37
2019-05-16T12:11:09.292Z,3.40
2019-05-16T12:13:39.789Z,4.03
2019-05-16T12:16:10.376Z,4.37
2019-05-16T12:18:40.927Z,6.57
2019-05-16T12:21:11.452Z,6.83
2019-05-16T12:23:41.806Z,6.60
2019-05-16T12:26:17.552Z,7.30
2019-05-16T12:28:47.200Z,6.30
2019-05-16T12:31:17.848Z,5.43
2019-05-16T12:33:48.336Z,5.20
2019-05-16T12:36:18.818Z,5.77
2019-05-16T12:38:49.373Z,4.30
2019-05-16T12:41:19.934Z,4.77
2019-05-16T12:43:53.543Z,5.27
2019-05-16T12:46:22.836Z,5.80
2019-05-16T12:48:53.446Z,6.37
2019-05-16T12:51:26.286Z,6.60
2019-05-16T12:53:57.248Z,6.17
2019-05-16T12:56:27.848Z,7.03
2019-05-16T12:58:58.336Z,6.87
2019-05-16T13:01:34.046Z,6.93
2019-05-16T13:04:03.280Z,6.90
2019-05-16T13:06:37.085Z,7.67
2019-05-16T13:09:09.110Z,6.67
2019-05-16T13:11:39.620Z,6.10
2019-05-16T13:14:11.411Z,7.50
2019-05-16T13:16:42.226Z,7.10
2019-05-16T13:19:18.543Z,6.37
2019-05-16T13:21:49.192Z,6.70
2019-05-16T13:24:19.682Z,5.27
2019-05-16T13:26:50.394Z,5.00
2019-05-16T13:29:27.315Z,6.43
2019-05-16T13:31:57.088Z,5.87
2019-05-16T13:34:30.849Z,5.30
2019-05-16T13:37:07.628Z,4.23
2019-05-16T13:39:41.039Z,5.40
2019-05-16T13:42:16.826Z,5.30
2019-05-16T13:44:57.473Z,5.33
2019-05-16T13:47:34.293Z,5.50
2019-05-16T13:50:12.306Z,5.50
2019-05-16T13:52:48.055Z,4.37
2019-05-16T13:55:21.732Z,3.83
2019-05-16T13:57:52.684Z,3.77
2019-05-16T14:00:24.029Z,3.90
2019-05-16T14:02:55.742Z,4.47
2019-05-16T14:05:26.852Z,3.67
2019-05-16T14:07:58.799Z,4.23
2019-05-16T14:10:32.522Z,4.23
2019-05-16T14:13:03.038Z,4.60
2019-05-16T14:15:36.500Z,4.57
2019-05-16T14:18:07.661Z,2.67
2019-05-16T14:20:46.944Z,3.10
2019-05-16T14:23:18.792Z,3.50
2019-05-16T14:25:49.424Z,3.27
2019-05-16T14:28:20.213Z,5.20
2019-05-16T14:30:50.734Z,5.90
2019-05-16T14:33:22.345Z,5.90
2019-05-16T14:35:53.025Z,6.23
2019-05-16T14:38:23.760Z,6.10
2019-05-16T14:40:57.106Z,5.97
2019-05-16T14:43:29.648Z,5.87
2019-05-16T14:46:00.347Z,5.73
2019-05-16T14:48:30.952Z,4.27
2019-05-16T14:51:01.624Z,4.33
2019-05-16T14:53:32.225Z,3.90
2019-05-16T14:56:02.788Z,5.77
2019-05-16T14:58:33.365Z,5.33
2019-05-16T15:01:08.241Z,5.90
2019-05-16T15:03:38.893Z,6.03
2019-05-16T15:06:09.569Z,6.40
2019-05-16T15:08:40.067Z,5.70
2019-05-16T15:11:10.778Z,5.97
2019-05-16T15:13:41.525Z,6.37
2019-05-16T15:16:16.986Z,6.00
2019-05-16T15:18:52.002Z,5.37
2019-05-16T15:21:26.137Z,6.30
2019-05-16T15:24:00.244Z,5.97
2019-05-16T15:26:30.887Z,5.63
2019-05-16T15:29:01.407Z,5.70
2019-05-16T15:31:32.031Z,7.80
2019-05-16T15:34:02.707Z,6.77
2019-05-16T15:36:37.115Z,7.27
2019-05-16T15:39:09.064Z,7.00
2019-05-16T15:41:39.690Z,8.07
2019-05-16T15:44:16.933Z,10.00
2019-05-16T15:46:49.643Z,7.23
2019-05-16T15:49:21.350Z,8.83
2019-05-16T15:51:52.076Z,7.57
2019-05-16T15:54:29.836Z,7.27
2019-05-16T15:57:03.552Z,6.20
2019-05-16T15:59:34.363Z,8.07
2019-05-16T16:02:08.109Z,7.63
2019-05-16T16:04:38.776Z,7.70
2019-05-16T16:07:09.437Z,8.20
2019-05-16T16:09:40.145Z,6.83
2019-05-16T16:12:14.030Z,6.33
2019-05-16T16:14:46.727Z,7.87
2019-05-16T16:17:18.999Z,7.77
2019-05-16T16:19:51.614Z,8.53
2019-05-16T16:22:26.904Z,8.40
2019-05-16T16:25:00.028Z,7.53
2019-05-16T16:27:31.891Z,8.40
2019-05-16T16:30:03.706Z,7.80
2019-05-16T16:32:38.443Z,7.63
2019-05-16T16:35:09.287Z,8.30
2019-05-16T16:37:39.888Z,9.40
2019-05-16T16:40:12.509Z,9.03
2019-05-16T16:42:44.257Z,9.33
2019-05-16T16:45:21.837Z,9.00
2019-05-16T16:47:52.594Z,9.10
2019-05-16T16:50:23.446Z,9.37
2019-05-16T16:52:56.590Z,9.30
2019-05-16T16:55:27.639Z,9.47
2019-05-16T16:58:02.033Z,10.30
2019-05-16T17:00:33.816Z,10.07
2019-05-16T17:03:09.251Z,10.50
2019-05-16T17:05:37.291Z,11.77
2019-05-16T17:08:10.537Z,11.27
2019-05-16T17:10:48.166Z,10.43
2019-05-16T17:13:23.536Z,12.60
2019-05-16T17:15:56.679Z,12.03
2019-05-16T17:18:31.840Z,12.10
2019-05-16T17:21:02.483Z,13.67
2019-05-16T17:23:34.381Z,13.00
2019-05-16T17:26:07.328Z,13.13
2019-05-16T17:28:42.014Z,14.33
2019-05-16T17:31:16.574Z,15.57
2019-05-16T17:33:49.474Z,13.30
2019-05-16T17:36:20.123Z,14.17
2019-05-16T17:38:53.358Z,13.83
2019-05-16T17:41:27.925Z,13.67
2019-05-16T17:43:58.598Z,14.80
2019-05-16T17:46:37.439Z,13.80
2019-05-16T17:49:07.389Z,13.60
2019-05-16T17:51:39.407Z,12.77
2019-05-16T17:54:10.146Z,14.47
2019-05-16T17:56:52.891Z,13.33
2019-05-16T17:59:28.034Z,14.80
2019-05-16T18:02:03.460Z,12.07
2019-05-16T18:04:40.977Z,12.00
2019-05-16T18:07:12.391Z,13.20
2019-05-16T18:09:45.423Z,14.43
2019-05-16T18:12:19.198Z,13.27
2019-05-16T18:14:53.365Z,12.97
2019-05-16T18:17:29.886Z,13.77
2019-05-16T18:20:22.368Z,14.50
2019-05-16T18:22:56.802Z,16.30
2019-05-16T18:25:28.493Z,17.50
2019-05-16T18:27:59.241Z,18.23
2019-05-16T18:30:36.680Z,17.37
2019-05-16T18:33:07.773Z,18.50
2019-05-16T18:35:39.646Z,19.23
2019-05-16T18:38:12.105Z,22.53
2019-05-16T18:40:44.152Z,21.77
2019-05-16T18:43:16.646Z,22.73
2019-05-16T18:45:50.656Z,22.60
2019-05-16T18:48:27.028Z,24.27
2019-05-16T18:51:00.477Z,22.23
2019-05-16T18:53:37.364Z,20.87
2019-05-16T18:56:16.602Z,23.30
2019-05-16T18:59:02.729Z,25.77
2019-05-16T19:01:37.532Z,24.43
2019-05-16T19:04:13.440Z,25.20
2019-05-16T19:06:46.816Z,25.40
2019-05-16T19:09:22.346Z,24.33
2019-05-16T19:11:53.616Z,25.27
2019-05-16T19:14:28.652Z,25.40
2019-05-16T19:16:59.435Z,25.73
2019-05-16T19:19:33.280Z,24.93
2019-05-16T19:22:07.097Z,22.83
2019-05-16T19:24:48.181Z,27.47
2019-05-16T19:27:29.578Z,29.73
2019-05-16T19:30:00.760Z,31.90
2019-05-16T19:32:39.608Z,30.97
2019-05-16T19:35:20.501Z,31.87
2019-05-16T19:37:53.396Z,32.00
2019-05-16T19:40:30.133Z,31.83
2019-05-16T19:43:06.980Z,31.23
2019-05-16T19:45:47.965Z,31.53
2019-05-16T19:48:27.334Z,30.63
2019-05-16T19:51:00.959Z,30.07
2019-05-16T19:53:33.042Z,29.77
2019-05-16T19:56:08.611Z,30.37
2019-05-16T19:58:42.248Z,32.37
2019-05-16T20:01:16.834Z,30.03
2019-05-16T20:03:56.371Z,29.77
2019-05-16T20:06:27.745Z,30.63
2019-05-16T20:09:02.965Z,31.33
2019-05-16T20:11:39.580Z,32.43
2019-05-16T20:14:19.583Z,32.97
2019-05-16T20:16:56.662Z,34.10
2019-05-16T20:19:36.503Z,33.80
2019-05-16T20:22:10.627Z,32.90
2019-05-16T20:24:41.608Z,30.67
2019-05-16T20:27:12.246Z,30.10
2019-05-16T20:29:43.319Z,28.33
2019-05-16T20:32:16.871Z,29.40
2019-05-16T20:34:52.347Z,26.60
2019-05-16T20:37:23.071Z,24.57
2019-05-16T20:39:54.910Z,24.87
2019-05-16T20:42:27.270Z,28.07
2019-05-16T20:44:59.213Z,29.20
2019-05-16T20:47:30.007Z,29.27
2019-05-16T20:50:00.809Z,29.00
2019-05-16T20:52:32.597Z,27.47
2019-05-16T20:55:03.327Z,26.90
2019-05-16T20:57:37.954Z,26.33
2019-05-16T21:00:09.684Z,25.57
2019-05-16T21:02:40.572Z,24.80
2019-05-16T21:05:11.812Z,25.03
2019-05-16T21:07:42.511Z,24.27
2019-05-16T21:10:17.123Z,24.77
2019-05-16T21:12:47.847Z,24.77
2019-05-16T21:15:18.736Z,23.20
2019-05-16T21:17:49.260Z,22.53
2019-05-16T21:20:20.059Z,23.03
2019-05-16T21:22:50.543Z,23.97
2019-05-16T21:25:21.173Z,23.37
2019-05-16T21:27:51.842Z,22.27
2019-05-16T21:30:22.642Z,22.10
2019-05-16T21:32:53.282Z,23.03
2019-05-16T21:35:23.891Z,23.03
2019-05-16T21:37:54.397Z,23.63
2019-05-16T21:40:26.486Z,22.73
2019-05-16T21:42:58.812Z,23.20
2019-05-16T21:45:29.527Z,23.27
2019-05-16T21:48:00.101Z,24.70
2019-05-16T21:50:30.522Z,25.30
2019-05-16T21:53:00.996Z,24.53
2019-05-16T21:55:31.636Z,22.37
2019-05-16T21:58:02.290Z,22.60
2019-05-16T22:00:38.897Z,22.90
2019-05-16T22:03:10.422Z,22.13
2019-05-16T22:05:41.087Z,21.27
2019-05-16T22:08:11.953Z,21.27
2019-05-16T22:10:42.717Z,21.87
2019-05-16T22:13:14.172Z,21.70
2019-05-16T22:15:46.425Z,20.90
2019-05-16T22:18:16.982Z,21.10
2019-05-16T22:20:49.339Z,21.43
2019-05-16T22:23:19.945Z,20.63
2019-05-16T22:25:50.851Z,20.70
2019-05-16T22:28:21.363Z,20.30
2019-05-16T22:30:52.072Z,21.13
2019-05-16T22:33:22.604Z,19.70
2019-05-16T22:35:53.218Z,19.27
2019-05-16T22:38:26.149Z,18.90
2019-05-16T22:40:56.330Z,18.80
2019-05-16T22:43:26.868Z,19.43
2019-05-16T22:45:57.615Z,18.60
2019-05-16T22:48:28.153Z,18.73
2019-05-16T22:50:58.806Z,19.03
2019-05-16T22:53:29.442Z,19.73
2019-05-16T22:56:00.027Z,18.17
2019-05-16T22:58:30.557Z,18.90
2019-05-16T23:01:01.488Z,18.27
2019-05-16T23:03:32.041Z,19.33
2019-05-16T23:06:02.603Z,18.23
2019-05-16T23:08:33.142Z,18.87
2019-05-16T23:11:03.632Z,18.57
2019-05-16T23:13:34.193Z,20.07
2019-05-16T23:16:06.772Z,20.00
2019-05-16T23:18:37.641Z,19.43
2019-05-16T23:21:08.434Z,19.67
2019-05-16T23:23:39.086Z,20.57
2019-05-16T23:26:09.631Z,19.90
2019-05-16T23:28:40.617Z,19.43
2019-05-16T23:31:11.564Z,19.83
2019-05-16T23:33:42.056Z,18.30
2019-05-16T23:36:12.576Z,18.53
2019-05-16T23:38:43.147Z,19.80
2019-05-16T23:41:13.598Z,19.20
2019-05-16T23:43:44.124Z,21.07
2019-05-16T23:46:16.498Z,19.77
2019-05-16T23:48:47.369Z,20.33
2019-05-16T23:51:18.012Z,20.13
2019-05-16T23:53:49.251Z,19.33
2019-05-16T23:56:19.804Z,19.03
2019-05-16T23:58:50.290Z,17.83
